Pittsburgh, PA (15236)

11:44 PM EDT on August 03, 2015 (GMT -0400)
Lower Gates Manor | | Change Station
CLOSE
Current Station
Personal Weather Station
Location: Munhall, PA
Elevation: 1050 ft
Nearby Weather Stations

Elev 1050 ft 40.39 °N, 79.92 °W | Updated 4 minutes ago

Overcast
Overcast
66.2 °F
Feels Like 66.2 °F
N
0.0
Wind Variable Wind from SSW

Today
High -- | Low -- °F
--% Chance of Precip.
Yesterday
High -- | Low -- °F
Precip. -- in
6:18 AM 8:32 PM
Waning Gibbous, 81% visible
Pressure 29.86 in
Visibility 8.0 miles
Clouds Scattered Clouds 2900 ft
Scattered Clouds 4100 ft
Mostly Cloudy 11000 ft
Dew Point 64 °F
Humidity 94%
Rainfall 1.00 in
Snow Depth Not available.
UV 0 out of 12
Pollen 6.40 out of 12
Air Quality Not available.
Flu Activity Not available.
SPECI KAGC 040307Z 35003KT 8SM SCT029 SCT041 BKN110 19/17 A2986 RMK AO2 T01940167 $

More Conditions Fewer Conditions

Pressure 29.86 in
Visibility 8.0 miles
Clouds Scattered Clouds 2900 ft
Scattered Clouds 4100 ft
Mostly Cloudy 11000 ft
Dew Point 64 °F
Humidity 94%
Rainfall 1.00 in
Snow Depth Not available.
UV 0 out of 12
Pollen 6.40 out of 12
Air Quality Not available.
Flu Activity Not available.
SPECI KAGC 040307Z 35003KT 8SM SCT029 SCT041 BKN110 19/17 A2986 RMK AO2 T01940167 $

More Conditions Fewer Conditions

10-Day Weather Forecast

×

Almanac

Astronomy

Aug. 03, 2015 Rise Set
Actual Time
Civil Twilight
Nautical Twilight
Astronomical Twilight
Moon
Length of Visible Light
Length of Day
Tomorrow will be .
, % of the Moon is Illuminated

Today's Extremes

State Highs State Lows

Community

WunderPhotos

Upload Photos

1,843,847 photos uploaded!

WunderBlogs® & News

Nearby

Air Quality

  Air Quality AQ Index Pollutant
Not available.

Snow Depth

Station Depth Elevation

Earthquake Activity

City Distance Mag. Time & Date
Minimum magnitude displayed is 2.5.

Coastal Water Temperatures

Place Temperature

Stations

Nearby Weather Stations

Station Location Temp. Windchill Dew Point Humidity Wind Precip. Elev Updated Type